sensor_id;sensor_type;location;lat;lon;timestamp;P1;durP1;ratioP1;P2;durP2;ratioP2
42030;SDS011;27709;52.036;5.906;2023-08-08T00:00:06;6.82;;;3.13;;
42030;SDS011;27709;52.036;5.906;2023-08-08T00:02:33;7.65;;;3.35;;
42030;SDS011;27709;52.036;5.906;2023-08-08T00:04:58;6.07;;;3.00;;
42030;SDS011;27709;52.036;5.906;2023-08-08T00:07:24;7.05;;;3.15;;
42030;SDS011;27709;52.036;5.906;2023-08-08T00:09:50;5.57;;;3.45;;
42030;SDS011;27709;52.036;5.906;2023-08-08T00:12:15;6.00;;;3.50;;
42030;SDS011;27709;52.036;5.906;2023-08-08T00:14:41;7.80;;;4.00;;
42030;SDS011;27709;52.036;5.906;2023-08-08T00:17:06;9.73;;;3.65;;
42030;SDS011;27709;52.036;5.906;2023-08-08T00:19:32;11.02;;;3.63;;
42030;SDS011;27709;52.036;5.906;2023-08-08T00:21:57;7.90;;;3.78;;
42030;SDS011;27709;52.036;5.906;2023-08-08T00:24:23;7.90;;;3.75;;
42030;SDS011;27709;52.036;5.906;2023-08-08T00:26:48;8.50;;;3.97;;
42030;SDS011;27709;52.036;5.906;2023-08-08T00:29:14;9.38;;;3.88;;
42030;SDS011;27709;52.036;5.906;2023-08-08T00:31:39;7.50;;;3.97;;
42030;SDS011;27709;52.036;5.906;2023-08-08T00:34:05;7.70;;;3.65;;
42030;SDS011;27709;52.036;5.906;2023-08-08T00:36:30;8.23;;;4.13;;
42030;SDS011;27709;52.036;5.906;2023-08-08T00:38:56;6.60;;;3.85;;
42030;SDS011;27709;52.036;5.906;2023-08-08T00:41:21;7.90;;;3.38;;
42030;SDS011;27709;52.036;5.906;2023-08-08T00:43:47;7.28;;;3.50;;
42030;SDS011;27709;52.036;5.906;2023-08-08T00:46:13;9.95;;;4.40;;
42030;SDS011;27709;52.036;5.906;2023-08-08T00:48:45;6.72;;;3.60;;
42030;SDS011;27709;52.036;5.906;2023-08-08T00:51:11;6.18;;;4.32;;
42030;SDS011;27709;52.036;5.906;2023-08-08T00:53:36;7.03;;;4.10;;
42030;SDS011;27709;52.036;5.906;2023-08-08T00:56:02;7.07;;;3.45;;
42030;SDS011;27709;52.036;5.906;2023-08-08T00:58:28;8.82;;;4.25;;
42030;SDS011;27709;52.036;5.906;2023-08-08T01:00:54;6.63;;;3.38;;
42030;SDS011;27709;52.036;5.906;2023-08-08T01:03:22;8.07;;;4.15;;
42030;SDS011;27709;52.036;5.906;2023-08-08T01:05:49;7.40;;;3.53;;
42030;SDS011;27709;52.036;5.906;2023-08-08T01:08:22;8.15;;;3.92;;
42030;SDS011;27709;52.036;5.906;2023-08-08T01:10:55;7.65;;;3.70;;
42030;SDS011;27709;52.036;5.906;2023-08-08T01:13:22;9.02;;;4.13;;
42030;SDS011;27709;52.036;5.906;2023-08-08T01:15:50;9.02;;;3.60;;
42030;SDS011;27709;52.036;5.906;2023-08-08T01:18:18;7.38;;;3.85;;
42030;SDS011;27709;52.036;5.906;2023-08-08T01:20:44;6.93;;;3.47;;
42030;SDS011;27709;52.036;5.906;2023-08-08T01:26:03;6.45;;;3.78;;
42030;SDS011;27709;52.036;5.906;2023-08-08T01:28:29;9.10;;;3.90;;
42030;SDS011;27709;52.036;5.906;2023-08-08T01:30:55;8.25;;;3.50;;
42030;SDS011;27709;52.036;5.906;2023-08-08T01:33:20;8.98;;;3.92;;
42030;SDS011;27709;52.036;5.906;2023-08-08T01:35:50;7.15;;;3.55;;
42030;SDS011;27709;52.036;5.906;2023-08-08T01:38:41;9.02;;;3.88;;
42030;SDS011;27709;52.036;5.906;2023-08-08T01:41:08;9.20;;;3.75;;
42030;SDS011;27709;52.036;5.906;2023-08-08T01:43:34;5.75;;;3.50;;
42030;SDS011;27709;52.036;5.906;2023-08-08T01:46:05;7.82;;;3.53;;
42030;SDS011;27709;52.036;5.906;2023-08-08T01:48:32;7.22;;;3.60;;
42030;SDS011;27709;52.036;5.906;2023-08-08T01:50:58;7.78;;;3.35;;
42030;SDS011;27709;52.036;5.906;2023-08-08T01:53:23;7.70;;;3.45;;
42030;SDS011;27709;52.036;5.906;2023-08-08T01:55:49;6.70;;;3.20;;
42030;SDS011;27709;52.036;5.906;2023-08-08T01:58:15;9.32;;;3.65;;
42030;SDS011;27709;52.036;5.906;2023-08-08T02:00:40;8.88;;;4.03;;
42030;SDS011;27709;52.036;5.906;2023-08-08T02:03:09;7.90;;;4.38;;
42030;SDS011;27709;52.036;5.906;2023-08-08T02:05:34;10.38;;;4.22;;
42030;SDS011;27709;52.036;5.906;2023-08-08T02:08:00;8.73;;;4.32;;
42030;SDS011;27709;52.036;5.906;2023-08-08T02:10:25;9.50;;;5.10;;
42030;SDS011;27709;52.036;5.906;2023-08-08T02:12:51;11.32;;;5.32;;
42030;SDS011;27709;52.036;5.906;2023-08-08T02:15:16;11.88;;;4.70;;
42030;SDS011;27709;52.036;5.906;2023-08-08T02:17:42;6.00;;;3.80;;
42030;SDS011;27709;52.036;5.906;2023-08-08T02:20:08;7.68;;;3.88;;
42030;SDS011;27709;52.036;5.906;2023-08-08T02:22:33;11.00;;;4.88;;
42030;SDS011;27709;52.036;5.906;2023-08-08T02:24:59;7.40;;;3.92;;
42030;SDS011;27709;52.036;5.906;2023-08-08T02:27:25;9.93;;;3.90;;
42030;SDS011;27709;52.036;5.906;2023-08-08T02:29:50;7.60;;;3.58;;
42030;SDS011;27709;52.036;5.906;2023-08-08T02:32:16;6.78;;;3.33;;
42030;SDS011;27709;52.036;5.906;2023-08-08T02:34:41;8.65;;;4.28;;
42030;SDS011;27709;52.036;5.906;2023-08-08T02:37:07;9.43;;;4.32;;
42030;SDS011;27709;52.036;5.906;2023-08-08T02:39:33;7.70;;;3.40;;
42030;SDS011;27709;52.036;5.906;2023-08-08T02:41:59;7.05;;;3.38;;
42030;SDS011;27709;52.036;5.906;2023-08-08T02:44:24;9.38;;;3.88;;
42030;SDS011;27709;52.036;5.906;2023-08-08T02:46:50;10.75;;;3.70;;
42030;SDS011;27709;52.036;5.906;2023-08-08T02:49:16;8.40;;;3.70;;
42030;SDS011;27709;52.036;5.906;2023-08-08T02:51:41;7.28;;;3.50;;
42030;SDS011;27709;52.036;5.906;2023-08-08T02:54:07;10.07;;;4.28;;
42030;SDS011;27709;52.036;5.906;2023-08-08T02:56:33;7.85;;;3.40;;
42030;SDS011;27709;52.036;5.906;2023-08-08T02:58:58;6.53;;;3.70;;
42030;SDS011;27709;52.036;5.906;2023-08-08T03:01:24;8.80;;;4.20;;
42030;SDS011;27709;52.036;5.906;2023-08-08T03:03:51;6.43;;;3.28;;
42030;SDS011;27709;52.036;5.906;2023-08-08T03:06:16;9.88;;;3.85;;
42030;SDS011;27709;52.036;5.906;2023-08-08T03:08:42;8.88;;;3.97;;
42030;SDS011;27709;52.036;5.906;2023-08-08T03:11:07;7.63;;;3.92;;
42030;SDS011;27709;52.036;5.906;2023-08-08T03:13:33;8.48;;;3.88;;
42030;SDS011;27709;52.036;5.906;2023-08-08T03:15:58;6.82;;;3.35;;
42030;SDS011;27709;52.036;5.906;2023-08-08T03:18:25;6.90;;;3.20;;
42030;SDS011;27709;52.036;5.906;2023-08-08T03:20:52;6.18;;;3.80;;
42030;SDS011;27709;52.036;5.906;2023-08-08T03:23:23;7.43;;;4.10;;
42030;SDS011;27709;52.036;5.906;2023-08-08T03:25:49;11.10;;;4.57;;
42030;SDS011;27709;52.036;5.906;2023-08-08T03:28:15;8.65;;;4.32;;
42030;SDS011;27709;52.036;5.906;2023-08-08T03:30:41;11.35;;;5.32;;
42030;SDS011;27709;52.036;5.906;2023-08-08T03:33:07;8.02;;;4.18;;
42030;SDS011;27709;52.036;5.906;2023-08-08T03:35:32;7.13;;;4.00;;
42030;SDS011;27709;52.036;5.906;2023-08-08T03:37:59;11.25;;;5.55;;
42030;SDS011;27709;52.036;5.906;2023-08-08T03:40:24;11.02;;;5.18;;
42030;SDS011;27709;52.036;5.906;2023-08-08T03:42:50;12.32;;;4.97;;
42030;SDS011;27709;52.036;5.906;2023-08-08T03:45:16;9.25;;;4.65;;
42030;SDS011;27709;52.036;5.906;2023-08-08T03:47:41;10.43;;;4.95;;
42030;SDS011;27709;52.036;5.906;2023-08-08T03:50:07;10.98;;;5.20;;
42030;SDS011;27709;52.036;5.906;2023-08-08T03:52:34;10.75;;;5.15;;
42030;SDS011;27709;52.036;5.906;2023-08-08T03:55:02;10.93;;;4.95;;
42030;SDS011;27709;52.036;5.906;2023-08-08T03:57:28;11.65;;;5.50;;
42030;SDS011;27709;52.036;5.906;2023-08-08T03:59:53;8.63;;;4.70;;
42030;SDS011;27709;52.036;5.906;2023-08-08T04:02:19;11.20;;;5.38;;
42030;SDS011;27709;52.036;5.906;2023-08-08T04:04:44;10.27;;;5.50;;
42030;SDS011;27709;52.036;5.906;2023-08-08T04:07:10;12.65;;;5.57;;
42030;SDS011;27709;52.036;5.906;2023-08-08T04:09:35;11.85;;;5.07;;
42030;SDS011;27709;52.036;5.906;2023-08-08T04:12:01;11.75;;;5.18;;
42030;SDS011;27709;52.036;5.906;2023-08-08T04:14:26;13.70;;;5.82;;
42030;SDS011;27709;52.036;5.906;2023-08-08T04:16:52;12.00;;;5.93;;
42030;SDS011;27709;52.036;5.906;2023-08-08T04:19:18;12.95;;;6.25;;
42030;SDS011;27709;52.036;5.906;2023-08-08T04:21:43;12.98;;;6.95;;
42030;SDS011;27709;52.036;5.906;2023-08-08T04:24:09;13.88;;;6.80;;
42030;SDS011;27709;52.036;5.906;2023-08-08T04:26:34;13.98;;;6.72;;
42030;SDS011;27709;52.036;5.906;2023-08-08T04:29:00;12.13;;;6.47;;
42030;SDS011;27709;52.036;5.906;2023-08-08T04:31:25;12.15;;;5.95;;
42030;SDS011;27709;52.036;5.906;2023-08-08T04:33:51;13.43;;;6.13;;
42030;SDS011;27709;52.036;5.906;2023-08-08T04:36:23;11.50;;;5.93;;
42030;SDS011;27709;52.036;5.906;2023-08-08T04:38:49;12.43;;;5.97;;
42030;SDS011;27709;52.036;5.906;2023-08-08T04:41:14;11.63;;;5.80;;
42030;SDS011;27709;52.036;5.906;2023-08-08T04:43:40;12.65;;;5.72;;
42030;SDS011;27709;52.036;5.906;2023-08-08T04:46:05;12.57;;;6.30;;
42030;SDS011;27709;52.036;5.906;2023-08-08T04:48:31;11.85;;;5.45;;
42030;SDS011;27709;52.036;5.906;2023-08-08T04:50:57;11.98;;;6.10;;
42030;SDS011;27709;52.036;5.906;2023-08-08T04:53:23;12.43;;;6.03;;
42030;SDS011;27709;52.036;5.906;2023-08-08T04:55:48;9.10;;;5.18;;
42030;SDS011;27709;52.036;5.906;2023-08-08T04:58:14;9.38;;;5.13;;
42030;SDS011;27709;52.036;5.906;2023-08-08T05:00:39;13.35;;;6.15;;
42030;SDS011;27709;52.036;5.906;2023-08-08T05:03:05;12.07;;;5.85;;
42030;SDS011;27709;52.036;5.906;2023-08-08T05:05:30;9.75;;;5.45;;
42030;SDS011;27709;52.036;5.906;2023-08-08T05:07:56;12.57;;;5.68;;
42030;SDS011;27709;52.036;5.906;2023-08-08T05:10:21;12.82;;;5.63;;
42030;SDS011;27709;52.036;5.906;2023-08-08T05:12:47;13.27;;;6.43;;
42030;SDS011;27709;52.036;5.906;2023-08-08T05:15:13;12.30;;;6.43;;
42030;SDS011;27709;52.036;5.906;2023-08-08T05:17:38;11.60;;;5.60;;
42030;SDS011;27709;52.036;5.906;2023-08-08T05:20:04;12.45;;;6.75;;
42030;SDS011;27709;52.036;5.906;2023-08-08T05:22:30;13.15;;;6.93;;
42030;SDS011;27709;52.036;5.906;2023-08-08T05:24:56;12.50;;;6.47;;
42030;SDS011;27709;52.036;5.906;2023-08-08T05:27:21;12.57;;;6.55;;
42030;SDS011;27709;52.036;5.906;2023-08-08T05:29:47;14.40;;;6.60;;
42030;SDS011;27709;52.036;5.906;2023-08-08T05:32:12;15.00;;;6.95;;
42030;SDS011;27709;52.036;5.906;2023-08-08T05:34:38;11.20;;;6.00;;
42030;SDS011;27709;52.036;5.906;2023-08-08T05:37:05;11.60;;;6.43;;
42030;SDS011;27709;52.036;5.906;2023-08-08T05:39:30;11.07;;;6.85;;
42030;SDS011;27709;52.036;5.906;2023-08-08T05:41:56;12.52;;;6.40;;
42030;SDS011;27709;52.036;5.906;2023-08-08T05:44:22;12.90;;;6.40;;
42030;SDS011;27709;52.036;5.906;2023-08-08T05:46:47;11.55;;;6.60;;
42030;SDS011;27709;52.036;5.906;2023-08-08T05:49:13;13.60;;;6.80;;
42030;SDS011;27709;52.036;5.906;2023-08-08T05:51:39;13.25;;;7.30;;
42030;SDS011;27709;52.036;5.906;2023-08-08T05:54:05;12.35;;;6.85;;
42030;SDS011;27709;52.036;5.906;2023-08-08T05:56:34;16.40;;;7.10;;
42030;SDS011;27709;52.036;5.906;2023-08-08T05:59:04;14.88;;;6.68;;
42030;SDS011;27709;52.036;5.906;2023-08-08T06:01:29;10.10;;;6.28;;
42030;SDS011;27709;52.036;5.906;2023-08-08T06:03:56;11.68;;;5.78;;
42030;SDS011;27709;52.036;5.906;2023-08-08T06:06:24;10.75;;;5.85;;
42030;SDS011;27709;52.036;5.906;2023-08-08T06:08:50;10.63;;;5.78;;
42030;SDS011;27709;52.036;5.906;2023-08-08T06:11:15;12.38;;;5.97;;
42030;SDS011;27709;52.036;5.906;2023-08-08T06:13:41;12.45;;;6.45;;
42030;SDS011;27709;52.036;5.906;2023-08-08T06:16:06;9.85;;;5.82;;
42030;SDS011;27709;52.036;5.906;2023-08-08T06:18:35;10.93;;;5.47;;
42030;SDS011;27709;52.036;5.906;2023-08-08T06:21:01;10.35;;;5.70;;
42030;SDS011;27709;52.036;5.906;2023-08-08T06:23:27;12.07;;;5.60;;
42030;SDS011;27709;52.036;5.906;2023-08-08T06:25:52;9.98;;;5.93;;
42030;SDS011;27709;52.036;5.906;2023-08-08T06:28:18;12.02;;;5.10;;
42030;SDS011;27709;52.036;5.906;2023-08-08T06:30:44;11.00;;;4.70;;
42030;SDS011;27709;52.036;5.906;2023-08-08T06:33:09;8.75;;;3.72;;
42030;SDS011;27709;52.036;5.906;2023-08-08T06:35:35;12.23;;;4.18;;
42030;SDS011;27709;52.036;5.906;2023-08-08T06:38:00;8.68;;;3.25;;
42030;SDS011;27709;52.036;5.906;2023-08-08T06:40:26;8.05;;;2.60;;
42030;SDS011;27709;52.036;5.906;2023-08-08T06:42:52;5.57;;;2.40;;
42030;SDS011;27709;52.036;5.906;2023-08-08T06:45:18;5.93;;;2.05;;
42030;SDS011;27709;52.036;5.906;2023-08-08T06:47:44;5.10;;;2.20;;
42030;SDS011;27709;52.036;5.906;2023-08-08T06:50:10;4.00;;;1.50;;
42030;SDS011;27709;52.036;5.906;2023-08-08T06:52:35;5.35;;;1.75;;
42030;SDS011;27709;52.036;5.906;2023-08-08T06:55:01;4.45;;;1.50;;
42030;SDS011;27709;52.036;5.906;2023-08-08T06:57:29;4.47;;;1.50;;
42030;SDS011;27709;52.036;5.906;2023-08-08T06:59:57;3.88;;;1.27;;
42030;SDS011;27709;52.036;5.906;2023-08-08T07:02:23;5.88;;;1.38;;
42030;SDS011;27709;52.036;5.906;2023-08-08T07:04:48;3.42;;;1.10;;
42030;SDS011;27709;52.036;5.906;2023-08-08T07:07:14;4.60;;;1.20;;
42030;SDS011;27709;52.036;5.906;2023-08-08T07:09:39;4.65;;;1.48;;
42030;SDS011;27709;52.036;5.906;2023-08-08T07:12:06;3.17;;;1.20;;
42030;SDS011;27709;52.036;5.906;2023-08-08T07:14:32;3.65;;;1.10;;
42030;SDS011;27709;52.036;5.906;2023-08-08T07:16:58;2.85;;;0.80;;
42030;SDS011;27709;52.036;5.906;2023-08-08T07:19:24;5.53;;;1.05;;
42030;SDS011;27709;52.036;5.906;2023-08-08T07:21:50;4.28;;;1.00;;
42030;SDS011;27709;52.036;5.906;2023-08-08T07:24:16;4.65;;;1.20;;
42030;SDS011;27709;52.036;5.906;2023-08-08T07:26:41;5.03;;;1.00;;
42030;SDS011;27709;52.036;5.906;2023-08-08T07:29:07;2.40;;;0.82;;
42030;SDS011;27709;52.036;5.906;2023-08-08T07:31:32;2.42;;;0.80;;
42030;SDS011;27709;52.036;5.906;2023-08-08T07:33:58;5.03;;;0.82;;
42030;SDS011;27709;52.036;5.906;2023-08-08T07:36:24;3.30;;;0.80;;
42030;SDS011;27709;52.036;5.906;2023-08-08T07:38:52;1.75;;;0.70;;
42030;SDS011;27709;52.036;5.906;2023-08-08T07:41:21;3.73;;;0.60;;
42030;SDS011;27709;52.036;5.906;2023-08-08T07:43:49;2.95;;;0.60;;
42030;SDS011;27709;52.036;5.906;2023-08-08T07:46:14;3.28;;;0.60;;
42030;SDS011;27709;52.036;5.906;2023-08-08T07:48:40;3.15;;;0.60;;
42030;SDS011;27709;52.036;5.906;2023-08-08T07:51:05;3.42;;;0.40;;
42030;SDS011;27709;52.036;5.906;2023-08-08T07:53:31;2.83;;;0.50;;
42030;SDS011;27709;52.036;5.906;2023-08-08T07:55:56;3.00;;;0.60;;
42030;SDS011;27709;52.036;5.906;2023-08-08T07:58:22;2.60;;;0.40;;
42030;SDS011;27709;52.036;5.906;2023-08-08T08:00:50;2.35;;;0.52;;
42030;SDS011;27709;52.036;5.906;2023-08-08T08:03:19;2.78;;;0.35;;
42030;SDS011;27709;52.036;5.906;2023-08-08T08:05:45;2.83;;;0.60;;
42030;SDS011;27709;52.036;5.906;2023-08-08T08:08:11;2.60;;;0.70;;
42030;SDS011;27709;52.036;5.906;2023-08-08T08:10:36;5.43;;;0.88;;
42030;SDS011;27709;52.036;5.906;2023-08-08T08:13:02;2.22;;;0.60;;
42030;SDS011;27709;52.036;5.906;2023-08-08T08:15:28;5.82;;;2.40;;
42030;SDS011;27709;52.036;5.906;2023-08-08T08:17:53;3.05;;;1.10;;
42030;SDS011;27709;52.036;5.906;2023-08-08T08:20:19;3.90;;;1.25;;
42030;SDS011;27709;52.036;5.906;2023-08-08T08:22:45;4.03;;;0.80;;
42030;SDS011;27709;52.036;5.906;2023-08-08T08:25:10;2.65;;;0.45;;
42030;SDS011;27709;52.036;5.906;2023-08-08T08:27:36;2.47;;;0.40;;
42030;SDS011;27709;52.036;5.906;2023-08-08T08:30:05;2.45;;;0.45;;
42030;SDS011;27709;52.036;5.906;2023-08-08T08:32:33;1.00;;;0.30;;
42030;SDS011;27709;52.036;5.906;2023-08-08T08:35:00;1.70;;;0.40;;
42030;SDS011;27709;52.036;5.906;2023-08-08T08:37:26;1.95;;;0.35;;
42030;SDS011;27709;52.036;5.906;2023-08-08T08:39:52;3.85;;;0.50;;
42030;SDS011;27709;52.036;5.906;2023-08-08T08:42:20;3.00;;;0.35;;
42030;SDS011;27709;52.036;5.906;2023-08-08T08:44:49;3.22;;;0.30;;
42030;SDS011;27709;52.036;5.906;2023-08-08T08:47:15;2.65;;;0.30;;
42030;SDS011;27709;52.036;5.906;2023-08-08T08:49:44;2.17;;;0.40;;
42030;SDS011;27709;52.036;5.906;2023-08-08T08:52:11;3.25;;;0.40;;
42030;SDS011;27709;52.036;5.906;2023-08-08T08:54:36;1.85;;;0.30;;
42030;SDS011;27709;52.036;5.906;2023-08-08T08:57:03;1.77;;;0.30;;
42030;SDS011;27709;52.036;5.906;2023-08-08T08:59:29;1.92;;;0.35;;
42030;SDS011;27709;52.036;5.906;2023-08-08T09:01:55;2.17;;;0.30;;
42030;SDS011;27709;52.036;5.906;2023-08-08T09:04:21;2.03;;;0.30;;
42030;SDS011;27709;52.036;5.906;2023-08-08T09:06:48;2.33;;;0.38;;
42030;SDS011;27709;52.036;5.906;2023-08-08T09:09:15;0.73;;;0.22;;
42030;SDS011;27709;52.036;5.906;2023-08-08T09:11:47;0.85;;;0.30;;
42030;SDS011;27709;52.036;5.906;2023-08-08T09:16:47;1.80;;;0.30;;
42030;SDS011;27709;52.036;5.906;2023-08-08T09:19:15;2.05;;;0.30;;
42030;SDS011;27709;52.036;5.906;2023-08-08T09:21:41;1.55;;;0.35;;
42030;SDS011;27709;52.036;5.906;2023-08-08T09:24:06;2.17;;;0.30;;
42030;SDS011;27709;52.036;5.906;2023-08-08T09:26:32;1.98;;;0.38;;
42030;SDS011;27709;52.036;5.906;2023-08-08T09:28:59;1.02;;;0.20;;
42030;SDS011;27709;52.036;5.906;2023-08-08T09:31:25;0.93;;;0.20;;
42030;SDS011;27709;52.036;5.906;2023-08-08T09:33:53;1.70;;;0.30;;
42030;SDS011;27709;52.036;5.906;2023-08-08T09:36:22;1.63;;;0.30;;
42030;SDS011;27709;52.036;5.906;2023-08-08T09:38:48;2.38;;;0.20;;
42030;SDS011;27709;52.036;5.906;2023-08-08T09:41:14;0.93;;;0.32;;
42030;SDS011;27709;52.036;5.906;2023-08-08T09:43:44;1.88;;;0.30;;
42030;SDS011;27709;52.036;5.906;2023-08-08T09:46:10;1.10;;;0.20;;
42030;SDS011;27709;52.036;5.906;2023-08-08T09:48:35;2.65;;;0.40;;
42030;SDS011;27709;52.036;5.906;2023-08-08T09:51:04;0.47;;;0.20;;
42030;SDS011;27709;52.036;5.906;2023-08-08T09:53:30;0.82;;;0.20;;
42030;SDS011;27709;52.036;5.906;2023-08-08T09:55:56;2.92;;;0.30;;
42030;SDS011;27709;52.036;5.906;2023-08-08T09:58:22;0.52;;;0.20;;
42030;SDS011;27709;52.036;5.906;2023-08-08T10:00:49;1.98;;;0.40;;
42030;SDS011;27709;52.036;5.906;2023-08-08T10:03:15;2.25;;;0.25;;
42030;SDS011;27709;52.036;5.906;2023-08-08T10:05:42;0.88;;;0.30;;
42030;SDS011;27709;52.036;5.906;2023-08-08T10:08:14;0.95;;;0.30;;
42030;SDS011;27709;52.036;5.906;2023-08-08T10:10:40;0.90;;;0.30;;
42030;SDS011;27709;52.036;5.906;2023-08-08T10:13:07;1.55;;;0.30;;
42030;SDS011;27709;52.036;5.906;2023-08-08T10:15:36;2.97;;;0.30;;
42030;SDS011;27709;52.036;5.906;2023-08-08T10:18:03;0.65;;;0.20;;
42030;SDS011;27709;52.036;5.906;2023-08-08T10:20:30;0.40;;;0.20;;
42030;SDS011;27709;52.036;5.906;2023-08-08T10:22:57;1.80;;;0.28;;
42030;SDS011;27709;52.036;5.906;2023-08-08T10:25:26;1.60;;;0.30;;
42030;SDS011;27709;52.036;5.906;2023-08-08T10:28:07;1.45;;;0.38;;
42030;SDS011;27709;52.036;5.906;2023-08-08T10:30:58;1.15;;;0.20;;
42030;SDS011;27709;52.036;5.906;2023-08-08T10:33:28;0.75;;;0.20;;
42030;SDS011;27709;52.036;5.906;2023-08-08T10:36:08;0.90;;;0.30;;
42030;SDS011;27709;52.036;5.906;2023-08-08T10:38:41;2.15;;;0.30;;
42030;SDS011;27709;52.036;5.906;2023-08-08T10:41:09;0.82;;;0.30;;
42030;SDS011;27709;52.036;5.906;2023-08-08T10:43:47;0.98;;;0.20;;
42030;SDS011;27709;52.036;5.906;2023-08-08T10:46:21;1.00;;;0.30;;
42030;SDS011;27709;52.036;5.906;2023-08-08T10:48:52;1.17;;;0.30;;
42030;SDS011;27709;52.036;5.906;2023-08-08T10:51:19;1.77;;;0.30;;
42030;SDS011;27709;52.036;5.906;2023-08-08T10:53:45;2.55;;;0.40;;
42030;SDS011;27709;52.036;5.906;2023-08-08T10:56:14;2.60;;;0.30;;
42030;SDS011;27709;52.036;5.906;2023-08-08T10:58:40;1.55;;;0.38;;
42030;SDS011;27709;52.036;5.906;2023-08-08T11:01:07;1.92;;;0.40;;
42030;SDS011;27709;52.036;5.906;2023-08-08T11:03:37;1.35;;;0.30;;
42030;SDS011;27709;52.036;5.906;2023-08-08T11:06:05;1.10;;;0.30;;
42030;SDS011;27709;52.036;5.906;2023-08-08T11:08:34;0.77;;;0.20;;
42030;SDS011;27709;52.036;5.906;2023-08-08T11:11:03;1.77;;;0.50;;
42030;SDS011;27709;52.036;5.906;2023-08-08T11:13:29;2.40;;;0.40;;
42030;SDS011;27709;52.036;5.906;2023-08-08T11:15:54;2.38;;;0.40;;
42030;SDS011;27709;52.036;5.906;2023-08-08T11:18:21;2.88;;;0.40;;
42030;SDS011;27709;52.036;5.906;2023-08-08T11:20:48;1.48;;;0.40;;
42030;SDS011;27709;52.036;5.906;2023-08-08T11:23:14;1.13;;;0.28;;
42030;SDS011;27709;52.036;5.906;2023-08-08T11:25:43;1.50;;;0.30;;
42030;SDS011;27709;52.036;5.906;2023-08-08T11:28:10;1.33;;;0.30;;
42030;SDS011;27709;52.036;5.906;2023-08-08T11:30:38;1.45;;;0.30;;
42030;SDS011;27709;52.036;5.906;2023-08-08T11:33:06;0.65;;;0.20;;
42030;SDS011;27709;52.036;5.906;2023-08-08T11:35:32;0.95;;;0.30;;
42030;SDS011;27709;52.036;5.906;2023-08-08T11:37:59;1.55;;;0.35;;
42030;SDS011;27709;52.036;5.906;2023-08-08T11:40:26;2.35;;;0.25;;
42030;SDS011;27709;52.036;5.906;2023-08-08T11:42:53;0.82;;;0.30;;
42030;SDS011;27709;52.036;5.906;2023-08-08T11:45:21;2.17;;;0.30;;
42030;SDS011;27709;52.036;5.906;2023-08-08T11:47:48;3.53;;;0.40;;
42030;SDS011;27709;52.036;5.906;2023-08-08T11:50:14;2.20;;;0.30;;
42030;SDS011;27709;52.036;5.906;2023-08-08T11:52:42;1.85;;;0.32;;
42030;SDS011;27709;52.036;5.906;2023-08-08T11:55:08;1.13;;;0.30;;
42030;SDS011;27709;52.036;5.906;2023-08-08T11:57:35;1.73;;;0.30;;
42030;SDS011;27709;52.036;5.906;2023-08-08T12:00:09;1.00;;;0.32;;
42030;SDS011;27709;52.036;5.906;2023-08-08T12:02:38;1.77;;;0.30;;
42030;SDS011;27709;52.036;5.906;2023-08-08T12:05:07;1.00;;;0.30;;
42030;SDS011;27709;52.036;5.906;2023-08-08T12:07:38;2.70;;;0.30;;
42030;SDS011;27709;52.036;5.906;2023-08-08T12:10:13;2.70;;;0.30;;
42030;SDS011;27709;52.036;5.906;2023-08-08T12:12:57;3.20;;;0.30;;
42030;SDS011;27709;52.036;5.906;2023-08-08T12:15:34;0.63;;;0.30;;
42030;SDS011;27709;52.036;5.906;2023-08-08T12:18:01;1.52;;;0.30;;
42030;SDS011;27709;52.036;5.906;2023-08-08T12:20:28;1.65;;;0.32;;
42030;SDS011;27709;52.036;5.906;2023-08-08T12:22:57;1.27;;;0.40;;
42030;SDS011;27709;52.036;5.906;2023-08-08T12:25:23;2.40;;;0.40;;
42030;SDS011;27709;52.036;5.906;2023-08-08T12:27:49;1.60;;;0.40;;
42030;SDS011;27709;52.036;5.906;2023-08-08T12:30:16;2.10;;;0.32;;
42030;SDS011;27709;52.036;5.906;2023-08-08T12:32:42;0.82;;;0.30;;
42030;SDS011;27709;52.036;5.906;2023-08-08T12:35:09;1.13;;;0.38;;
42030;SDS011;27709;52.036;5.906;2023-08-08T12:37:37;2.70;;;0.40;;
42030;SDS011;27709;52.036;5.906;2023-08-08T12:40:03;1.42;;;0.40;;
42030;SDS011;27709;52.036;5.906;2023-08-08T12:42:32;2.00;;;0.40;;
42030;SDS011;27709;52.036;5.906;2023-08-08T12:44:59;1.50;;;0.20;;
42030;SDS011;27709;52.036;5.906;2023-08-08T12:47:25;0.90;;;0.38;;
42030;SDS011;27709;52.036;5.906;2023-08-08T12:49:54;1.20;;;0.40;;
42030;SDS011;27709;52.036;5.906;2023-08-08T12:52:19;1.77;;;0.38;;
42030;SDS011;27709;52.036;5.906;2023-08-08T12:54:47;1.13;;;0.40;;
42030;SDS011;27709;52.036;5.906;2023-08-08T12:57:12;1.15;;;0.30;;
42030;SDS011;27709;52.036;5.906;2023-08-08T12:59:38;2.50;;;0.35;;
42030;SDS011;27709;52.036;5.906;2023-08-08T13:02:03;2.50;;;0.40;;
42030;SDS011;27709;52.036;5.906;2023-08-08T13:04:31;1.17;;;0.32;;
42030;SDS011;27709;52.036;5.906;2023-08-08T13:06:57;1.58;;;0.30;;
42030;SDS011;27709;52.036;5.906;2023-08-08T13:09:22;1.30;;;0.40;;
42030;SDS011;27709;52.036;5.906;2023-08-08T13:11:48;1.65;;;0.40;;
42030;SDS011;27709;52.036;5.906;2023-08-08T13:14:13;2.10;;;0.35;;
42030;SDS011;27709;52.036;5.906;2023-08-08T13:16:39;2.35;;;0.40;;
42030;SDS011;27709;52.036;5.906;2023-08-08T13:19:04;2.08;;;0.40;;
42030;SDS011;27709;52.036;5.906;2023-08-08T13:21:32;1.33;;;0.30;;
42030;SDS011;27709;52.036;5.906;2023-08-08T13:23:57;2.55;;;0.40;;
42030;SDS011;27709;52.036;5.906;2023-08-08T13:26:24;0.93;;;0.43;;
42030;SDS011;27709;52.036;5.906;2023-08-08T13:28:50;1.38;;;0.40;;
42030;SDS011;27709;52.036;5.906;2023-08-08T13:31:15;3.72;;;0.52;;
42030;SDS011;27709;52.036;5.906;2023-08-08T13:33:41;1.10;;;0.30;;
42030;SDS011;27709;52.036;5.906;2023-08-08T13:36:07;1.40;;;0.40;;
42030;SDS011;27709;52.036;5.906;2023-08-08T13:38:32;0.98;;;0.40;;
42030;SDS011;27709;52.036;5.906;2023-08-08T13:41:00;0.95;;;0.40;;
42030;SDS011;27709;52.036;5.906;2023-08-08T13:43:26;2.45;;;0.40;;
42030;SDS011;27709;52.036;5.906;2023-08-08T13:45:52;1.05;;;0.40;;
42030;SDS011;27709;52.036;5.906;2023-08-08T13:48:17;2.35;;;0.40;;
42030;SDS011;27709;52.036;5.906;2023-08-08T13:50:43;1.75;;;0.40;;
42030;SDS011;27709;52.036;5.906;2023-08-08T13:53:10;1.02;;;0.40;;
42030;SDS011;27709;52.036;5.906;2023-08-08T13:55:36;1.33;;;0.40;;
42030;SDS011;27709;52.036;5.906;2023-08-08T13:58:05;1.33;;;0.40;;
42030;SDS011;27709;52.036;5.906;2023-08-08T14:00:31;1.95;;;0.50;;
42030;SDS011;27709;52.036;5.906;2023-08-08T14:02:57;0.80;;;0.40;;
42030;SDS011;27709;52.036;5.906;2023-08-08T14:05:23;1.67;;;0.40;;
42030;SDS011;27709;52.036;5.906;2023-08-08T14:07:49;1.63;;;0.40;;
42030;SDS011;27709;52.036;5.906;2023-08-08T14:10:15;1.77;;;0.40;;
42030;SDS011;27709;52.036;5.906;2023-08-08T14:12:42;1.85;;;0.40;;
42030;SDS011;27709;52.036;5.906;2023-08-08T14:15:10;0.85;;;0.40;;
42030;SDS011;27709;52.036;5.906;2023-08-08T14:17:35;1.63;;;0.57;;
42030;SDS011;27709;52.036;5.906;2023-08-08T14:20:01;1.65;;;0.43;;
42030;SDS011;27709;52.036;5.906;2023-08-08T14:22:29;1.98;;;0.40;;
42030;SDS011;27709;52.036;5.906;2023-08-08T14:25:00;1.60;;;0.38;;
42030;SDS011;27709;52.036;5.906;2023-08-08T14:27:25;1.70;;;0.47;;
42030;SDS011;27709;52.036;5.906;2023-08-08T14:29:52;2.22;;;0.47;;
42030;SDS011;27709;52.036;5.906;2023-08-08T14:32:18;2.00;;;0.40;;
42030;SDS011;27709;52.036;5.906;2023-08-08T14:34:43;1.55;;;0.40;;
42030;SDS011;27709;52.036;5.906;2023-08-08T14:37:09;2.42;;;0.40;;
42030;SDS011;27709;52.036;5.906;2023-08-08T14:39:37;0.75;;;0.30;;
42030;SDS011;27709;52.036;5.906;2023-08-08T14:42:03;1.13;;;0.40;;
42030;SDS011;27709;52.036;5.906;2023-08-08T14:44:29;2.17;;;0.55;;
42030;SDS011;27709;52.036;5.906;2023-08-08T14:46:56;1.85;;;0.40;;